Aviation Digital Data Service (ADDS)

Output produced by METARs form (1040 UTC 20 January 2018)
found at http://aviationweather.gov/adds/metars/
 
METAR text: KOVE 200953Z AUTO 31004KT 10SM CLR 04/01 A3009 RMK AO2 SLP194 T00390011
Conditions at: KOVE (OROVILLE , CA, US) observed 0953 UTC 20 January 2018
Temperature: 3.9°C (39°F)
Dewpoint: 1.1°C (34°F) [RH = 82%]
Pressure (altimeter): 30.09 inches Hg (1019.0 mb)
[Sea-level pressure: 1019.4 mb]
Winds: from the NW (310 degrees) at 5 MPH (4 knots; 2.1 m/s)
Visibility: 10 or more miles (16+ km)
Ceiling: at least 12,000 feet AGL
Clouds: sky clear below 12,000 feet AGL
Weather: automated observation with no human augmentation;
there may or may not be significant weather present at this time